Time;durP1;ratioP1;P1;durP2;ratioP2;P2;SDS_P1;SDS_P2;PMS_P1;PMS_P2;Temp;Humidity;BMP_temperature;BMP_pressure;BME280_temperature;BME280_humidity;BME280_pressure;Samples;Min_cycle;Max_cycle;Signal;HPM_P1;HPM_P2
2021/04/25 00:02:08;;;;;;;8.98;1.95;;;6.00;99.90;;;;;;5024348;28;20048;-80
2021/04/25 00:04:36;;;;;;;6.72;1.83;;;5.90;99.90;;;;;;5041965;28;20040;-79
2021/04/25 00:07:03;;;;;;;8.60;1.70;;;5.90;99.90;;;;;;5036827;28;20469;-79
2021/04/25 00:09:29;;;;;;;10.10;1.80;;;5.90;99.90;;;;;;5037502;28;20052;-79
2021/04/25 00:11:55;;;;;;;8.70;1.67;;;5.90;99.90;;;;;;5020628;28;20033;-79
2021/04/25 00:14:21;;;;;;;8.32;1.92;;;5.90;99.90;;;;;;5021939;28;20484;-80
2021/04/25 00:16:47;;;;;;;7.40;1.70;;;5.90;99.90;;;;;;5025614;28;20043;-80
2021/04/25 00:19:13;;;;;;;8.68;2.08;;;5.90;99.90;;;;;;5037801;28;20476;-81
2021/04/25 00:21:40;;;;;;;6.72;1.65;;;5.90;99.90;;;;;;5041634;28;20461;-80
2021/04/25 00:24:06;;;;;;;10.45;1.75;;;5.90;99.90;;;;;;5004432;28;20055;-79
2021/04/25 00:26:32;;;;;;;9.25;2.00;;;5.80;99.90;;;;;;5037665;28;20044;-79
2021/04/25 00:28:58;;;;;;;7.47;1.70;;;5.90;99.90;;;;;;5038056;28;20056;-79
2021/04/25 00:31:24;;;;;;;8.15;1.58;;;6.00;99.90;;;;;;5022959;28;20460;-80
2021/04/25 00:33:50;;;;;;;11.77;1.90;;;5.80;99.90;;;;;;5035051;28;20048;-81
2021/04/25 00:36:16;;;;;;;10.75;2.15;;;5.80;99.90;;;;;;5019174;28;20073;-79
2021/04/25 00:38:42;;;;;;;19.08;2.00;;;5.80;99.90;;;;;;5022958;28;20067;-79
2021/04/25 00:41:08;;;;;;;6.05;1.70;;;5.80;99.90;;;;;;5018995;28;20045;-80
2021/04/25 00:43:34;;;;;;;10.57;2.05;;;5.70;99.90;;;;;;5038116;28;20113;-80
2021/04/25 00:46:00;;;;;;;5.38;1.80;;;5.90;99.90;;;;;;5026465;28;20037;-80
2021/04/25 00:48:26;;;;;;;10.13;2.05;;;5.80;99.90;;;;;;5027699;28;20092;-79
2021/04/25 00:50:52;;;;;;;6.60;1.73;;;5.80;99.90;;;;;;5038539;28;20052;-80
2021/04/25 00:53:18;;;;;;;7.93;1.75;;;5.80;99.90;;;;;;5039703;28;20048;-80
2021/04/25 00:55:46;;;;;;;15.68;2.13;;;5.80;99.90;;;;;;5002597;28;20049;-81
2021/04/25 00:58:12;;;;;;;8.85;2.50;;;5.80;99.90;;;;;;5023226;28;20111;-80
2021/04/25 01:00:38;;;;;;;9.85;2.58;;;5.80;99.90;;;;;;5039280;28;20047;-80
2021/04/25 01:03:04;;;;;;;11.70;2.50;;;5.70;99.90;;;;;;5020671;28;20447;-80
2021/04/25 01:05:30;;;;;;;10.57;2.13;;;5.70;99.90;;;;;;5037844;28;20041;-79
2021/04/25 01:07:56;;;;;;;7.53;2.67;;;5.80;99.90;;;;;;5040404;28;20036;-80
2021/04/25 01:10:22;;;;;;;11.90;2.40;;;5.80;99.90;;;;;;5019231;28;20045;-80
2021/04/25 01:12:48;;;;;;;9.38;2.25;;;5.80;99.90;;;;;;5038584;28;20041;-81
2021/04/25 01:15:17;;;;;;;8.57;2.20;;;5.80;99.90;;;;;;5003136;28;20053;-80
2021/04/25 01:17:45;;;;;;;8.63;2.38;;;5.80;99.90;;;;;;5025879;28;20036;-79
2021/04/25 01:20:13;;;;;;;6.28;2.35;;;5.80;99.90;;;;;;5006815;28;20119;-81
2021/04/25 01:22:40;;;;;;;11.38;2.00;;;5.80;99.90;;;;;;5022639;28;20216;-80
2021/04/25 01:25:11;;;;;;;15.70;2.50;;;5.80;99.90;;;;;;5022976;28;20045;-81
2021/04/25 01:27:37;;;;;;;12.50;2.33;;;5.80;99.90;;;;;;5034755;28;20098;-79
2021/04/25 01:30:09;;;;;;;9.10;2.40;;;5.80;99.90;;;;;;5025804;28;20037;-80
2021/04/25 01:32:35;;;;;;;7.63;1.98;;;5.80;99.90;;;;;;5035623;28;20053;-79
2021/04/25 01:35:03;;;;;;;9.00;2.50;;;5.80;99.90;;;;;;5019741;28;20038;-79
2021/04/25 01:37:29;;;;;;;8.48;2.30;;;5.70;99.90;;;;;;5023406;28;20040;-79
2021/04/25 01:39:54;;;;;;;7.60;2.22;;;5.80;99.90;;;;;;5038254;28;20477;-81
2021/04/25 01:42:20;;;;;;;8.32;2.72;;;6.00;99.90;;;;;;5039070;28;20776;-78
2021/04/25 01:44:46;;;;;;;10.90;2.65;;;5.70;99.90;;;;;;5020853;28;20157;-80
2021/04/25 01:47:12;;;;;;;10.07;2.28;;;5.80;99.90;;;;;;5006503;28;20048;-81
2021/04/25 01:49:38;;;;;;;8.00;2.33;;;5.70;99.90;;;;;;5021496;28;20045;-78
2021/04/25 01:52:04;;;;;;;6.45;2.08;;;6.60;99.90;;;;;;5040781;28;20034;-81
2021/04/25 01:54:30;;;;;;;10.52;2.17;;;5.70;99.90;;;;;;5039126;28;20044;-80
2021/04/25 01:56:56;;;;;;;10.30;2.47;;;5.80;99.90;;;;;;5029980;28;20033;-79
2021/04/25 01:59:22;;;;;;;8.48;1.75;;;5.70;99.90;;;;;;5026032;28;20124;-79
2021/04/25 02:01:48;;;;;;;13.77;2.45;;;5.70;99.90;;;;;;5023043;28;21947;-81
2021/04/25 02:04:15;;;;;;;6.32;1.30;;;5.70;99.90;;;;;;5023803;28;21698;-81
2021/04/25 02:06:43;;;;;;;10.48;1.40;;;5.80;99.90;;;;;;5038485;28;20075;-79
2021/04/25 02:09:10;;;;;;;9.57;1.92;;;5.80;99.90;;;;;;5018127;28;20613;-80
2021/04/25 02:11:37;;;;;;;6.45;1.63;;;5.70;99.90;;;;;;5026552;28;20029;-79
2021/04/25 02:14:07;;;;;;;11.07;1.77;;;5.70;99.90;;;;;;5042212;28;20044;-78
2021/04/25 02:16:34;;;;;;;8.80;1.65;;;5.80;99.90;;;;;;5041291;28;20033;-81
2021/04/25 02:19:01;;;;;;;13.85;2.60;;;5.80;99.90;;;;;;5007646;28;20056;-79
2021/04/25 02:21:30;;;;;;;14.45;2.05;;;5.70;99.90;;;;;;5036238;28;20051;-80
2021/04/25 02:23:57;;;;;;;10.73;2.05;;;5.70;99.90;;;;;;5042092;28;20481;-79
2021/04/25 02:26:24;;;;;;;14.15;2.38;;;5.70;99.90;;;;;;5039660;28;20059;-80
2021/04/25 02:28:50;;;;;;;10.50;1.95;;;5.80;99.90;;;;;;5042998;28;20125;-82
2021/04/25 02:31:16;;;;;;;9.45;2.08;;;5.70;99.90;;;;;;5041382;28;20044;-78
2021/04/25 02:33:42;;;;;;;5.78;1.70;;;5.70;99.90;;;;;;5042517;28;20095;-79
2021/04/25 02:36:09;;;;;;;20.35;2.78;;;5.70;99.90;;;;;;5022796;28;20036;-81
2021/04/25 02:38:34;;;;;;;10.07;2.15;;;5.70;99.90;;;;;;5029747;28;20148;-81
2021/04/25 02:41:01;;;;;;;15.52;2.20;;;5.70;99.90;;;;;;5041498;28;20879;-79
2021/04/25 02:43:27;;;;;;;15.20;2.13;;;5.60;99.90;;;;;;5026010;28;20086;-80
2021/04/25 02:45:53;;;;;;;11.23;1.75;;;5.70;99.90;;;;;;5023145;28;20048;-79
2021/04/25 02:48:19;;;;;;;13.18;2.00;;;5.70;99.90;;;;;;5025797;28;20041;-80
2021/04/25 02:50:45;;;;;;;10.40;1.60;;;5.60;99.90;;;;;;5038261;28;20421;-80
2021/04/25 02:53:12;;;;;;;5.82;1.15;;;5.70;99.90;;;;;;5007751;28;20053;-81
2021/04/25 02:55:38;;;;;;;14.52;2.10;;;5.70;99.90;;;;;;5040491;28;20032;-79
2021/04/25 02:58:05;;;;;;;13.95;1.60;;;5.90;99.90;;;;;;5035690;28;20040;-80
2021/04/25 03:00:31;;;;;;;9.65;1.67;;;5.80;99.90;;;;;;5026854;28;20057;-79
2021/04/25 03:02:58;;;;;;;13.75;1.80;;;5.70;99.90;;;;;;5038764;28;20192;-78
2021/04/25 03:05:24;;;;;;;13.07;1.50;;;5.80;99.90;;;;;;5031313;28;20032;-79
2021/04/25 03:07:51;;;;;;;11.45;1.95;;;5.70;99.90;;;;;;5039303;28;20128;-80
2021/04/25 03:10:18;;;;;;;10.48;2.17;;;5.80;99.90;;;;;;5024448;28;20131;-79
2021/04/25 03:12:45;;;;;;;9.60;1.80;;;5.70;99.90;;;;;;5045098;28;20033;-80
2021/04/25 03:15:12;;;;;;;14.30;2.13;;;5.60;99.90;;;;;;5023061;28;20024;-78
2021/04/25 03:17:38;;;;;;;10.70;1.98;;;5.60;99.90;;;;;;5041940;28;20045;-80
2021/04/25 03:20:06;;;;;;;10.10;1.67;;;5.60;99.90;;;;;;5029103;28;20041;-81
2021/04/25 03:22:32;;;;;;;9.98;1.85;;;5.60;99.90;;;;;;5042975;28;20032;-80
2021/04/25 03:24:58;;;;;;;14.10;2.10;;;5.60;99.90;;;;;;5031704;28;20033;-80
2021/04/25 03:27:26;;;;;;;14.07;2.20;;;5.60;99.90;;;;;;5032161;28;20488;-79
2021/04/25 03:29:52;;;;;;;12.32;1.58;;;5.90;99.90;;;;;;5038476;28;20037;-80
2021/04/25 03:32:18;;;;;;;9.73;1.60;;;5.60;99.90;;;;;;5023195;28;20120;-79
2021/04/25 03:34:44;;;;;;;12.15;1.98;;;5.70;99.90;;;;;;5042345;28;20111;-82
2021/04/25 03:37:10;;;;;;;8.00;1.20;;;5.70;99.90;;;;;;5027412;28;20048;-80
2021/04/25 03:39:36;;;;;;;7.07;1.40;;;5.60;99.90;;;;;;5045897;28;20477;-80
2021/04/25 03:42:02;;;;;;;13.02;1.58;;;5.70;99.90;;;;;;5043129;28;20057;-79
2021/04/25 03:44:28;;;;;;;12.45;1.95;;;5.70;99.90;;;;;;5040844;28;20396;-80
2021/04/25 03:46:55;;;;;;;15.00;1.85;;;5.80;99.90;;;;;;5024526;28;20037;-80
2021/04/25 03:49:21;;;;;;;11.30;1.70;;;5.70;99.90;;;;;;5022870;28;20156;-80
2021/04/25 03:51:48;;;;;;;10.95;1.60;;;5.70;99.90;;;;;;5039588;28;20052;-81
2021/04/25 03:54:14;;;;;;;10.80;1.83;;;5.70;99.90;;;;;;5039103;28;20075;-80
2021/04/25 03:56:41;;;;;;;11.98;1.83;;;5.60;99.90;;;;;;5021727;28;20045;-80
2021/04/25 03:59:06;;;;;;;8.25;1.60;;;5.60;99.90;;;;;;5038341;28;20030;-81
2021/04/25 04:01:32;;;;;;;13.63;2.47;;;5.60;99.90;;;;;;5024160;28;20082;-80
2021/04/25 04:03:58;;;;;;;10.48;2.05;;;5.60;99.90;;;;;;5037915;28;20091;-80
2021/04/25 04:06:24;;;;;;;16.00;2.17;;;5.60;99.90;;;;;;5039380;28;20037;-79
2021/04/25 04:08:50;;;;;;;10.13;1.70;;;5.60;99.90;;;;;;5033094;28;20035;-81
2021/04/25 04:11:16;;;;;;;16.10;2.30;;;5.60;99.90;;;;;;5022493;28;20037;-80
2021/04/25 04:13:43;;;;;;;8.95;1.73;;;5.70;99.90;;;;;;5029459;28;20052;-79
2021/04/25 04:16:09;;;;;;;11.20;1.77;;;5.70;99.90;;;;;;5020252;28;20049;-80
2021/04/25 04:18:35;;;;;;;8.63;1.70;;;5.70;99.90;;;;;;5025260;28;20158;-79
2021/04/25 04:21:00;;;;;;;10.10;1.63;;;5.70;99.90;;;;;;5022639;28;20045;-79
2021/04/25 04:23:26;;;;;;;11.73;2.25;;;5.70;99.90;;;;;;5039137;28;20028;-79
2021/04/25 04:25:53;;;;;;;11.73;1.92;;;5.90;99.90;;;;;;5026067;28;20055;-80
2021/04/25 04:28:18;;;;;;;16.30;2.05;;;5.90;99.90;;;;;;5030296;28;20041;-78
2021/04/25 04:30:44;;;;;;;10.48;2.00;;;5.80;99.90;;;;;;5041969;28;20051;-81
2021/04/25 04:33:10;;;;;;;17.25;2.30;;;5.90;99.90;;;;;;5042572;28;20608;-78
2021/04/25 04:35:36;;;;;;;12.48;2.00;;;5.90;99.90;;;;;;5041311;28;20223;-80
2021/04/25 04:38:02;;;;;;;18.00;2.63;;;5.80;99.90;;;;;;5024619;28;20551;-80
2021/04/25 04:40:28;;;;;;;22.20;2.70;;;5.80;99.90;;;;;;5039371;28;20763;-81
2021/04/25 04:42:54;;;;;;;10.88;2.20;;;5.90;99.90;;;;;;5041227;28;20079;-80
2021/04/25 04:45:20;;;;;;;9.65;2.40;;;6.00;99.90;;;;;;5040247;28;20042;-79
2021/04/25 04:47:46;;;;;;;13.32;2.35;;;5.80;99.90;;;;;;5024758;28;20409;-80
2021/04/25 04:50:18;;;;;;;14.43;1.90;;;5.80;99.90;;;;;;5041562;28;20045;-77
2021/04/25 04:52:45;;;;;;;12.07;1.90;;;5.80;99.90;;;;;;5023397;28;20056;-80
2021/04/25 04:55:12;;;;;;;8.95;1.50;;;5.80;99.90;;;;;;5047802;28;20032;-78
2021/04/25 04:57:37;;;;;;;13.13;2.15;;;5.80;99.90;;;;;;5045410;28;20066;-78
2021/04/25 05:00:05;;;;;;;7.65;2.10;;;5.80;99.90;;;;;;5026788;28;20365;-78
2021/04/25 05:02:31;;;;;;;13.80;2.05;;;5.80;99.90;;;;;;5028594;28;20245;-79
2021/04/25 05:04:57;;;;;;;11.40;2.03;;;5.80;99.90;;;;;;5047128;28;20041;-78
2021/04/25 05:07:23;;;;;;;10.93;1.88;;;5.80;99.90;;;;;;5025211;28;20507;-80
2021/04/25 05:09:50;;;;;;;10.93;1.67;;;5.80;99.90;;;;;;5023044;28;20172;-80
2021/04/25 05:12:16;;;;;;;10.18;2.00;;;5.90;99.90;;;;;;5015020;28;20061;-80
2021/04/25 05:14:42;;;;;;;7.97;1.63;;;6.00;99.90;;;;;;5038785;28;20056;-80
2021/04/25 05:17:08;;;;;;;11.07;1.83;;;5.90;99.90;;;;;;5031549;28;20033;-80
2021/04/25 05:19:33;;;;;;;12.18;1.65;;;6.10;99.90;;;;;;5045795;28;20472;-80
2021/04/25 05:21:59;;;;;;;19.85;2.58;;;6.00;99.90;;;;;;5029272;28;20045;-80
2021/04/25 05:24:25;;;;;;;14.32;1.90;;;6.00;99.90;;;;;;5031377;28;20080;-79
2021/04/25 05:26:51;;;;;;;12.00;1.90;;;6.00;99.90;;;;;;5029562;28;20150;-78
2021/04/25 05:29:17;;;;;;;9.48;1.60;;;6.00;99.90;;;;;;5028578;28;20056;-78
2021/04/25 05:31:44;;;;;;;11.07;1.55;;;6.00;99.90;;;;;;5048505;28;20103;-80
2021/04/25 05:34:11;;;;;;;15.38;1.80;;;6.00;99.90;;;;;;5049185;28;20574;-80
2021/04/25 05:36:37;;;;;;;14.90;1.83;;;6.00;99.90;;;;;;5049034;28;20037;-78
2021/04/25 05:39:05;;;;;;;7.03;1.40;;;6.00;99.90;;;;;;5048079;28;20091;-81
2021/04/25 05:41:30;;;;;;;15.65;2.58;;;6.10;99.90;;;;;;5047350;28;20496;-80
2021/04/25 05:43:57;;;;;;;16.10;2.42;;;6.10;99.90;;;;;;5031806;28;20050;-78
2021/04/25 05:46:22;;;;;;;12.13;1.40;;;6.10;99.90;;;;;;5031292;28;20056;-79
2021/04/25 05:48:49;;;;;;;10.95;2.05;;;6.20;99.90;;;;;;5034399;28;20045;-80
2021/04/25 05:51:15;;;;;;;12.15;2.13;;;6.20;99.90;;;;;;5036052;28;20111;-79
2021/04/25 05:53:42;;;;;;;11.43;1.67;;;6.20;99.90;;;;;;5033071;28;20047;-79
2021/04/25 05:56:08;;;;;;;10.38;2.13;;;6.20;99.90;;;;;;5046408;28;20530;-77
2021/04/25 05:58:34;;;;;;;11.73;1.40;;;6.30;99.90;;;;;;5041698;28;20037;-77
2021/04/25 06:01:00;;;;;;;8.73;1.58;;;6.30;99.90;;;;;;5044011;28;20037;-77
2021/04/25 06:03:29;;;;;;;10.98;1.50;;;6.30;99.90;;;;;;5030411;28;20366;-78
2021/04/25 06:05:54;;;;;;;10.85;1.60;;;6.30;99.90;;;;;;5042619;28;20033;-77
2021/04/25 06:08:21;;;;;;;20.45;1.95;;;6.30;99.90;;;;;;5048078;28;20098;-77
2021/04/25 06:10:47;;;;;;;13.70;2.05;;;6.30;99.90;;;;;;5033997;28;20120;-78
2021/04/25 06:13:13;;;;;;;6.40;1.70;;;6.40;99.90;;;;;;5031416;28;20139;-78
2021/04/25 06:15:39;;;;;;;11.50;1.75;;;6.30;99.90;;;;;;5050149;28;20115;-78
2021/04/25 06:18:05;;;;;;;9.75;1.50;;;6.40;99.90;;;;;;5033241;28;20048;-79
2021/04/25 06:20:31;;;;;;;22.02;2.50;;;6.60;99.90;;;;;;5041568;28;20726;-77
2021/04/25 06:22:58;;;;;;;12.77;1.67;;;6.30;99.90;;;;;;5045075;28;20036;-79
2021/04/25 06:25:24;;;;;;;19.58;2.35;;;6.30;99.90;;;;;;5034213;28;20735;-79
2021/04/25 06:27:50;;;;;;;11.73;1.80;;;6.40;99.90;;;;;;5046603;28;20116;-80
2021/04/25 06:30:17;;;;;;;12.73;2.22;;;6.50;99.90;;;;;;5030406;28;20073;-78
2021/04/25 06:32:45;;;;;;;10.40;1.65;;;6.50;99.90;;;;;;5033007;28;20037;-78
2021/04/25 06:35:13;;;;;;;11.90;2.22;;;6.60;99.90;;;;;;5032218;28;20047;-79
2021/04/25 06:37:45;;;;;;;13.48;2.25;;;6.60;99.90;;;;;;5047003;28;20151;-77
2021/04/25 06:40:12;;;;;;;15.40;2.22;;;6.60;99.90;;;;;;5043338;28;20033;-77
2021/04/25 06:42:39;;;;;;;8.45;1.60;;;6.60;99.90;;;;;;5047454;28;20236;-77
2021/04/25 06:45:10;;;;;;;9.05;1.65;;;6.60;99.90;;;;;;5040363;28;20100;-79
2021/04/25 06:47:36;;;;;;;12.18;1.70;;;6.60;99.90;;;;;;5028605;28;20037;-79
2021/04/25 06:50:02;;;;;;;14.00;1.92;;;6.60;99.90;;;;;;5040172;28;20121;-78
2021/04/25 06:52:28;;;;;;;12.30;1.23;;;6.70;99.90;;;;;;5041493;28;20037;-79
2021/04/25 06:54:54;;;;;;;11.25;1.45;;;6.90;99.90;;;;;;5023916;28;20076;-78
2021/04/25 06:57:19;;;;;;;9.15;1.50;;;6.80;99.40;;;;;;5043536;28;20091;-79
2021/04/25 06:59:45;;;;;;;10.18;1.52;;;6.80;99.10;;;;;;5031504;28;20111;-77
2021/04/25 07:02:11;;;;;;;11.35;1.50;;;6.70;99.00;;;;;;5040265;28;20081;-79
2021/04/25 07:04:39;;;;;;;9.43;1.77;;;6.90;98.90;;;;;;5045284;28;20195;-78
2021/04/25 07:07:04;;;;;;;11.07;1.92;;;6.80;99.70;;;;;;5047677;28;20033;-77
2021/04/25 07:09:30;;;;;;;10.55;1.48;;;6.80;99.60;;;;;;5044485;28;20493;-79
2021/04/25 07:11:57;;;;;;;9.55;1.50;;;6.80;99.20;;;;;;5045660;28;20067;-77
2021/04/25 07:14:23;;;;;;;8.05;1.73;;;6.80;99.30;;;;;;5026203;28;20049;-77
2021/04/25 07:16:49;;;;;;;6.97;1.30;;;6.90;98.70;;;;;;5045398;28;20033;-78
2021/04/25 07:19:15;;;;;;;11.05;1.42;;;7.00;99.00;;;;;;5042372;28;20075;-82
2021/04/25 07:21:41;;;;;;;9.40;1.80;;;7.00;98.50;;;;;;5049408;28;20063;-78
2021/04/25 07:24:07;;;;;;;8.77;1.50;;;6.90;98.80;;;;;;5040501;28;20044;-79
2021/04/25 07:26:33;;;;;;;12.10;1.52;;;6.90;98.90;;;;;;5034456;28;20496;-75
2021/04/25 07:28:59;;;;;;;9.80;1.30;;;6.80;98.80;;;;;;5036237;28;20063;-79
2021/04/25 07:31:24;;;;;;;12.90;1.80;;;6.90;98.80;;;;;;5024050;28;20034;-82
2021/04/25 07:33:50;;;;;;;10.90;1.65;;;7.00;98.80;;;;;;5045959;28;20563;-81
2021/04/25 07:36:16;;;;;;;12.70;1.98;;;7.20;98.80;;;;;;5029118;28;20480;-82
2021/04/25 07:38:41;;;;;;;10.90;2.13;;;7.20;99.10;;;;;;5040186;28;20033;-80
2021/04/25 07:41:08;;;;;;;10.52;1.70;;;7.30;99.10;;;;;;4989333;28;20068;-78
2021/04/25 07:43:34;;;;;;;9.75;1.70;;;7.40;98.70;;;;;;5040576;28;20048;-82
2021/04/25 07:46:00;;;;;;;17.10;1.83;;;7.40;98.10;;;;;;5043308;28;20037;-80
2021/04/25 07:48:27;;;;;;;5.10;1.30;;;7.50;97.30;;;;;;5030896;28;20127;-80
2021/04/25 07:50:53;;;;;;;4.25;1.05;;;7.50;96.70;;;;;;5040704;28;20116;-81
2021/04/25 07:53:19;;;;;;;7.18;1.48;;;7.50;96.30;;;;;;5012541;28;20575;-80
2021/04/25 07:55:44;;;;;;;5.38;1.30;;;7.40;96.80;;;;;;5031017;28;20098;-78
2021/04/25 07:58:11;;;;;;;6.68;1.40;;;7.50;96.40;;;;;;5024761;28;20028;-84
2021/04/25 08:00:38;;;;;;;8.38;1.77;;;7.60;96.10;;;;;;5045175;28;20036;-79
2021/04/25 08:03:05;;;;;;;8.52;1.50;;;7.60;96.60;;;;;;5039332;28;20752;-77
2021/04/25 08:05:32;;;;;;;10.60;1.60;;;7.40;97.00;;;;;;5040927;28;20466;-78
2021/04/25 08:07:58;;;;;;;14.70;2.03;;;8.10;97.70;;;;;;5008916;28;20041;-78
2021/04/25 08:10:24;;;;;;;8.95;1.60;;;7.40;97.40;;;;;;5019164;28;20441;-77
2021/04/25 08:12:51;;;;;;;11.23;1.88;;;7.50;97.80;;;;;;5044103;28;20124;-79
2021/04/25 08:15:17;;;;;;;9.18;1.65;;;7.50;97.60;;;;;;5030622;28;20561;-78
2021/04/25 08:17:44;;;;;;;14.15;1.77;;;7.50;97.80;;;;;;5021274;28;20393;-79
2021/04/25 08:20:10;;;;;;;10.32;1.75;;;7.50;98.40;;;;;;5040314;28;20095;-78
2021/04/25 08:22:36;;;;;;;5.90;1.33;;;7.40;98.60;;;;;;5003880;28;20583;-77
2021/04/25 08:25:03;;;;;;;9.95;1.30;;;7.50;97.70;;;;;;5023044;28;20052;-77
2021/04/25 08:27:28;;;;;;;9.18;1.38;;;7.60;96.90;;;;;;5025620;28;20485;-78
2021/04/25 08:29:54;;;;;;;6.65;1.02;;;7.60;97.10;;;;;;5032878;28;20147;-79
2021/04/25 08:32:20;;;;;;;12.35;1.70;;;7.60;96.90;;;;;;5008381;28;20130;-80
2021/04/25 08:34:46;;;;;;;11.05;1.83;;;7.50;96.80;;;;;;5018488;28;20033;-78
2021/04/25 08:37:11;;;;;;;13.63;1.25;;;7.60;97.20;;;;;;5027696;28;20052;-76
2021/04/25 08:39:37;;;;;;;7.22;1.30;;;7.50;96.90;;;;;;5025745;28;20053;-78
2021/04/25 08:42:03;;;;;;;8.95;1.40;;;7.60;97.10;;;;;;5041215;28;20093;-80
2021/04/25 08:44:29;;;;;;;8.13;1.73;;;7.50;98.00;;;;;;5002110;28;20041;-75
2021/04/25 08:46:55;;;;;;;11.00;1.55;;;7.50;97.70;;;;;;5041254;28;20033;-79
2021/04/25 08:49:26;;;;;;;8.43;1.60;;;7.70;98.50;;;;;;5038641;28;20041;-75
2021/04/25 08:51:52;;;;;;;13.23;1.90;;;7.80;98.60;;;;;;5040419;28;20476;-77
2021/04/25 08:54:22;;;;;;;12.23;1.70;;;7.70;98.30;;;;;;5037126;28;20037;-78
2021/04/25 08:56:49;;;;;;;9.55;1.92;;;7.80;98.50;;;;;;5043912;28;20408;-79
2021/04/25 08:59:15;;;;;;;11.98;1.50;;;7.80;98.20;;;;;;5052402;28;20041;-75
2021/04/25 09:01:41;;;;;;;10.77;1.75;;;7.90;98.40;;;;;;5053207;28;20095;-78
2021/04/25 09:04:07;;;;;;;11.13;1.90;;;8.00;98.10;;;;;;5047490;28;20048;-76
2021/04/25 09:06:32;;;;;;;7.88;1.63;;;7.90;98.10;;;;;;5031183;28;20041;-76
2021/04/25 09:09:04;;;;;;;12.30;1.90;;;7.90;97.80;;;;;;5026563;28;20029;-76
2021/04/25 09:11:36;;;;;;;10.63;1.65;;;7.90;98.10;;;;;;5025686;28;20389;-76
2021/04/25 09:14:16;;;;;;;15.43;1.77;;;8.10;98.00;;;;;;5044219;28;20380;-77
2021/04/25 09:16:54;;;;;;;7.60;1.35;;;8.10;97.20;;;;;;5046322;28;20047;-76
2021/04/25 09:19:52;;;;;;;6.90;1.30;;;8.10;97.00;;;;;;5040393;28;20038;-77
2021/04/25 09:22:20;;;;;;;12.50;1.80;;;8.10;96.70;;;;;;4975324;28;20445;-79
2021/04/25 09:24:46;;;;;;;11.43;1.48;;;8.20;96.60;;;;;;4976670;28;20122;-78
2021/04/25 09:27:24;;;;;;;13.73;1.90;;;8.40;96.30;;;;;;4977223;28;20114;-76
2021/04/25 09:29:52;;;;;;;11.10;1.73;;;8.30;96.40;;;;;;4981157;28;20042;-77
2021/04/25 09:32:23;;;;;;;10.02;1.70;;;8.30;96.00;;;;;;4977862;28;20133;-75
2021/04/25 09:35:05;;;;;;;10.52;1.75;;;8.20;94.70;;;;;;4964685;28;20049;-77
2021/04/25 09:37:35;;;;;;;11.38;1.73;;;8.20;94.80;;;;;;4986673;28;20039;-75
2021/04/25 09:40:08;;;;;;;14.05;1.77;;;8.40;95.30;;;;;;4976573;28;20065;-75
2021/04/25 09:43:02;;;;;;;11.27;1.70;;;8.60;95.20;;;;;;4962662;28;20062;-75
2021/04/25 09:45:43;;;;;;;11.18;1.80;;;8.80;95.40;;;;;;4938972;28;20059;-76
2021/04/25 09:48:27;;;;;;;8.52;1.60;;;9.00;93.90;;;;;;4961159;28;20038;-76
2021/04/25 09:51:06;;;;;;;9.32;2.20;;;9.20;92.30;;;;;;4954761;28;20039;-81
2021/04/25 09:53:32;;;;;;;14.57;2.10;;;9.50;93.00;;;;;;4941370;29;20043;-78
2021/04/25 09:55:59;;;;;;;14.38;2.00;;;9.60;92.40;;;;;;4954339;28;20084;-78
2021/04/25 09:58:27;;;;;;;8.88;1.80;;;9.80;90.50;;;;;;4977606;28;20145;-78
2021/04/25 10:00:54;;;;;;;10.07;1.70;;;9.80;87.70;;;;;;5009242;28;20026;-75
2021/04/25 10:03:22;;;;;;;11.02;1.60;;;9.80;83.60;;;;;;4999192;28;20470;-78
2021/04/25 10:06:04;;;;;;;11.48;1.75;;;9.60;83.20;;;;;;5001506;28;20693;-73
2021/04/25 10:08:32;;;;;;;9.68;1.70;;;9.60;82.10;;;;;;4985065;28;20038;-76
2021/04/25 10:11:02;;;;;;;8.00;1.35;;;9.60;86.00;;;;;;4972049;28;20373;-78
2021/04/25 10:13:29;;;;;;;7.95;1.42;;;9.60;89.40;;;;;;4986484;28;20038;-78
2021/04/25 10:15:55;;;;;;;6.75;1.40;;;9.90;88.00;;;;;;5012051;28;20048;-80
2021/04/25 10:18:21;;;;;;;8.27;1.60;;;10.00;88.40;;;;;;4993096;28;20035;-76
2021/04/25 10:20:51;;;;;;;7.50;1.45;;;9.80;86.40;;;;;;5008044;28;20034;-79
2021/04/25 10:23:18;;;;;;;8.05;1.77;;;9.90;89.80;;;;;;5005374;28;20041;-79
2021/04/25 10:26:00;;;;;;;7.95;1.67;;;9.90;92.00;;;;;;5003284;28;20038;-79
2021/04/25 10:28:34;;;;;;;10.20;1.65;;;9.50;91.70;;;;;;4993518;28;20037;-79
2021/04/25 10:31:06;;;;;;;23.15;2.00;;;9.70;93.50;;;;;;4990670;28;20036;-79
2021/04/25 10:33:51;;;;;;;7.70;1.60;;;9.90;91.90;;;;;;5007760;28;20127;-78
2021/04/25 10:36:18;;;;;;;14.43;1.92;;;9.70;93.70;;;;;;5005692;28;20505;-81
2021/04/25 10:38:44;;;;;;;10.35;1.70;;;9.90;94.20;;;;;;4986258;28;20038;-79
2021/04/25 10:41:18;;;;;;;8.77;1.95;;;10.00;94.60;;;;;;4986313;28;20145;-76
2021/04/25 10:44:01;;;;;;;9.02;1.67;;;10.10;92.00;;;;;;5019562;28;20053;-78
2021/04/25 10:46:52;;;;;;;11.23;2.17;;;10.10;92.90;;;;;;5024405;28;20040;-76
2021/04/25 10:49:29;;;;;;;10.25;1.88;;;10.10;92.20;;;;;;5040772;28;20086;-75
2021/04/25 10:52:21;;;;;;;12.48;1.92;;;10.20;92.20;;;;;;5028338;28;20030;-76
2021/04/25 10:55:16;;;;;;;14.27;1.92;;;10.30;93.40;;;;;;5040071;28;20129;-78
2021/04/25 10:57:51;;;;;;;;;;;10.10;92.90;;;;;;5045220;28;20373;-75
2021/04/25 11:00:33;;;;;;;9.65;2.08;;;9.90;91.90;;;;;;5052321;28;19932;-78
2021/04/25 11:03:10;;;;;;;8.57;1.90;;;9.80;92.80;;;;;;5033823;28;20044;-78
2021/04/25 11:05:39;;;;;;;11.55;2.25;;;9.80;93.40;;;;;;5039478;28;20342;-78
2021/04/25 11:08:28;;;;;;;11.40;1.80;;;9.90;92.80;;;;;;5027867;28;20048;-78
2021/04/25 11:10:57;;;;;;;14.68;1.98;;;9.90;93.90;;;;;;5024298;28;20044;-77
2021/04/25 11:13:47;;;;;;;10.07;1.95;;;9.90;93.90;;;;;;5044115;28;20075;-78
2021/04/25 11:16:17;;;;;;;6.90;1.65;;;10.10;93.90;;;;;;5020302;28;20390;-77
2021/04/25 11:18:52;;;;;;;10.77;2.00;;;10.20;93.70;;;;;;5030548;28;20101;-79
2021/04/25 11:21:40;;;;;;;10.95;1.80;;;9.90;94.90;;;;;;5020642;28;20060;-79
2021/04/25 11:24:09;;;;;;;13.38;2.30;;;10.20;95.00;;;;;;5040381;28;20033;-79
2021/04/25 11:26:41;;;;;;;14.43;2.28;;;10.20;94.90;;;;;;5033783;28;20037;-79
2021/04/25 11:29:17;;;;;;;14.43;2.38;;;10.20;95.40;;;;;;5047799;28;20064;-79
2021/04/25 11:31:50;;;;;;;9.57;1.95;;;10.00;95.20;;;;;;5044312;28;20393;-78
2021/04/25 11:34:28;;;;;;;8.27;1.73;;;10.40;94.00;;;;;;5043633;28;20043;-78
2021/04/25 11:37:20;;;;;;;10.07;1.92;;;10.40;92.70;;;;;;5050387;28;20040;-78
2021/04/25 11:39:52;;;;;;;10.18;2.33;;;10.60;93.20;;;;;;5044953;28;20033;-80
2021/04/25 11:42:31;;;;;;;11.90;1.92;;;10.50;90.80;;;;;;5028382;28;20036;-78
2021/04/25 11:45:03;;;;;;;13.80;2.20;;;10.60;91.10;;;;;;5019831;28;20060;-78
2021/04/25 11:47:31;;;;;;;11.68;1.80;;;10.70;91.40;;;;;;5048919;28;20030;-78
2021/04/25 11:49:59;;;;;;;11.88;2.17;;;10.70;91.30;;;;;;5034252;28;20048;-77
2021/04/25 11:52:34;;;;;;;8.25;1.73;;;10.70;91.90;;;;;;5046491;28;20041;-78
2021/04/25 11:55:10;;;;;;;14.50;2.20;;;10.50;92.20;;;;;;5043969;28;20457;-77
2021/04/25 11:57:38;;;;;;;17.83;2.10;;;10.50;93.00;;;;;;5042920;28;20041;-76
2021/04/25 12:00:08;;;;;;;9.68;2.10;;;10.60;93.20;;;;;;5043992;28;20056;-77
2021/04/25 12:03:00;;;;;;;11.98;1.95;;;10.70;91.90;;;;;;5040061;28;20045;-78
2021/04/25 12:05:30;;;;;;;12.68;2.47;;;10.60;91.60;;;;;;4996289;28;20046;-76
2021/04/25 12:08:04;;;;;;;11.05;2.30;;;10.70;92.60;;;;;;5001052;28;20141;-77
2021/04/25 12:10:38;;;;;;;10.07;2.00;;;10.60;93.20;;;;;;5004708;28;20097;-77
2021/04/25 12:13:10;;;;;;;15.00;2.38;;;10.40;93.10;;;;;;5007152;28;20100;-77
2021/04/25 12:15:54;;;;;;;10.48;2.35;;;10.40;94.00;;;;;;5006831;28;20041;-77
2021/04/25 12:18:23;;;;;;;17.70;2.40;;;10.60;92.60;;;;;;4999499;28;20042;-81
2021/04/25 12:20:51;;;;;;;14.20;2.20;;;10.80;92.90;;;;;;4991526;28;20046;-81
2021/04/25 12:23:26;;;;;;;10.02;1.98;;;11.10;93.50;;;;;;5007313;28;20050;-80
2021/04/25 12:25:53;;;;;;;;;;;10.70;91.80;;;;;;5002746;28;20077;-78
2021/04/25 12:28:41;;;;;;;11.30;1.95;;;10.60;92.50;;;;;;5003149;28;20387;-80
2021/04/25 12:31:08;;;;;;;12.40;2.13;;;10.60;92.50;;;;;;4988523;28;20043;-75
2021/04/25 12:33:53;;;;;;;5.10;1.63;;;10.60;92.00;;;;;;5006839;28;20080;-78
2021/04/25 12:36:24;;;;;;;14.98;2.17;;;10.80;93.10;;;;;;5007667;28;20105;-81
2021/04/25 12:38:56;;;;;;;14.07;2.22;;;11.00;92.30;;;;;;5006696;28;20452;-78
2021/04/25 12:41:23;;;;;;;16.40;2.15;;;11.10;90.10;;;;;;4994581;28;20050;-79
2021/04/25 12:43:49;;;;;;;11.77;2.13;;;11.60;90.20;;;;;;5038296;28;20489;-81
2021/04/25 12:46:22;;;;;;;11.55;2.60;;;11.70;84.80;;;;;;5040852;28;20041;-81
2021/04/25 12:48:50;;;;;;;15.18;2.30;;;12.20;82.50;;;;;;5040834;28;20148;-80
2021/04/25 12:51:45;;;;;;;12.00;2.22;;;12.20;84.90;;;;;;5031659;28;20044;-80
2021/04/25 12:54:20;;;;;;;9.18;2.20;;;12.80;79.00;;;;;;5021776;28;20056;-80
2021/04/25 12:56:54;;;;;;;11.00;1.92;;;12.20;77.20;;;;;;5040697;28;20056;-80
2021/04/25 12:59:39;;;;;;;10.07;2.17;;;12.50;76.00;;;;;;5028979;28;20045;-78